Time;durP1;ratioP1;P1;durP2;ratioP2;P2;SDS_P1;SDS_P2;PMS_P1;PMS_P2;Temp;Humidity;BMP_temperature;BMP_pressure;BME280_temperature;BME280_humidity;BME280_pressure;Samples;Min_cycle;Max_cycle;Signal;HPM_P1;HPM_P2
2022/11/19 00:02:03;;;;;;;10.43;7.87;;;5.30;99.90;;;;;;5039359;28;20491;-60
2022/11/19 00:04:31;;;;;;;14.30;8.67;;;5.30;99.90;;;;;;5038446;28;20471;-58
2022/11/19 00:07:02;;;;;;;12.27;7.83;;;5.30;99.90;;;;;;5046974;28;20463;-60
2022/11/19 00:09:29;;;;;;;10.20;7.67;;;5.30;99.90;;;;;;5059166;28;20849;-58
2022/11/19 00:14:44;;;;;;;10.93;8.13;;;5.20;99.90;;;;;;5039199;28;20446;-59
2022/11/19 00:17:15;;;;;;;12.40;8.13;;;5.20;99.90;;;;;;5038397;28;20533;-60
2022/11/19 00:19:42;;;;;;;9.70;8.03;;;5.20;99.90;;;;;;5039182;28;20833;-60
2022/11/19 00:22:13;;;;;;;8.93;7.40;;;5.10;99.90;;;;;;5049295;28;20903;-60
2022/11/19 00:24:42;;;;;;;13.60;9.60;;;5.00;99.90;;;;;;5056749;28;20529;-58
2022/11/19 00:27:10;;;;;;;13.17;9.57;;;5.00;99.90;;;;;;5058824;28;20437;-60
2022/11/19 00:29:37;;;;;;;13.40;10.40;;;5.10;99.90;;;;;;5058744;28;20528;-60
2022/11/19 00:32:05;;;;;;;16.70;10.90;;;5.00;99.90;;;;;;5055663;28;20464;-60
2022/11/19 00:34:32;;;;;;;13.03;9.73;;;5.00;99.90;;;;;;5056666;28;20428;-60
2022/11/19 00:37:02;;;;;;;21.13;10.57;;;4.90;99.90;;;;;;5058228;28;20466;-60
2022/11/19 00:39:31;;;;;;;15.27;10.67;;;4.80;99.90;;;;;;5058481;28;20437;-60
2022/11/19 00:41:58;;;;;;;15.10;9.63;;;4.80;99.90;;;;;;5057846;28;20710;-60
2022/11/19 00:44:26;;;;;;;13.90;11.00;;;4.90;99.90;;;;;;5038564;28;20495;-60
2022/11/19 00:46:53;;;;;;;17.17;9.97;;;4.80;99.90;;;;;;5038241;28;20451;-60
2022/11/19 00:49:23;;;;;;;15.80;10.33;;;4.80;99.90;;;;;;5038317;28;20506;-60
2022/11/19 00:51:54;;;;;;;17.20;9.50;;;4.70;99.90;;;;;;5037844;28;20463;-60
2022/11/19 00:54:21;;;;;;;12.80;9.50;;;4.70;99.90;;;;;;5053278;28;20465;-60
2022/11/19 00:56:50;;;;;;;13.60;11.13;;;4.70;99.90;;;;;;5057179;28;20457;-60
2022/11/19 00:59:17;;;;;;;15.43;10.10;;;4.60;99.90;;;;;;5057286;28;20470;-60
2022/11/19 01:01:45;;;;;;;14.73;9.70;;;4.60;99.90;;;;;;5057335;28;20466;-60
2022/11/19 01:04:15;;;;;;;13.30;9.73;;;4.50;99.90;;;;;;5046161;28;20932;-60
2022/11/19 01:06:43;;;;;;;12.90;10.13;;;4.50;99.90;;;;;;5038071;28;20474;-60
2022/11/19 01:09:13;;;;;;;16.47;10.40;;;4.40;99.90;;;;;;5037799;28;20888;-60
2022/11/19 01:11:43;;;;;;;16.50;10.63;;;4.40;99.90;;;;;;5038062;28;20446;-57
2022/11/19 01:14:11;;;;;;;11.53;9.60;;;4.40;99.90;;;;;;5044349;28;20429;-58
2022/11/19 01:16:41;;;;;;;14.37;10.00;;;4.30;99.90;;;;;;5057554;28;20471;-59
2022/11/19 01:19:15;;;;;;;16.97;10.17;;;4.30;99.90;;;;;;5057388;28;20441;-60
2022/11/19 01:21:42;;;;;;;13.60;9.30;;;4.20;99.90;;;;;;5057828;28;20461;-57
2022/11/19 01:24:09;;;;;;;15.40;10.73;;;4.20;99.90;;;;;;5053918;28;20483;-59
2022/11/19 01:26:36;;;;;;;12.90;9.30;;;4.20;99.90;;;;;;5037467;28;20481;-60
2022/11/19 01:29:04;;;;;;;11.90;9.97;;;4.20;99.90;;;;;;5037628;28;20570;-60
2022/11/19 01:31:32;;;;;;;14.20;9.90;;;4.20;99.90;;;;;;5037757;28;20492;-60
2022/11/19 01:34:01;;;;;;;16.17;10.50;;;4.20;99.90;;;;;;5036734;28;20466;-59
2022/11/19 01:36:32;;;;;;;11.50;8.97;;;4.20;99.90;;;;;;5053944;28;20437;-59
2022/11/19 01:39:02;;;;;;;15.90;11.47;;;4.10;99.90;;;;;;5037615;28;20884;-59
2022/11/19 01:41:31;;;;;;;18.80;11.10;;;4.10;99.90;;;;;;5037539;28;20889;-60
2022/11/19 01:44:00;;;;;;;11.03;9.50;;;4.00;99.90;;;;;;5036968;28;20504;-61
2022/11/19 01:46:32;;;;;;;15.40;10.10;;;4.00;99.90;;;;;;5050501;28;20895;-60
2022/11/19 01:49:04;;;;;;;15.50;10.90;;;4.00;99.90;;;;;;5056805;28;20527;-60
2022/11/19 01:51:35;;;;;;;15.13;10.53;;;4.00;99.90;;;;;;5057281;28;20762;-60
2022/11/19 01:54:08;;;;;;;16.60;11.37;;;4.00;99.90;;;;;;5057037;28;20917;-60
2022/11/19 01:56:37;;;;;;;16.50;10.77;;;3.90;99.90;;;;;;5045085;28;20550;-59
2022/11/19 01:59:09;;;;;;;16.20;11.07;;;3.80;99.90;;;;;;5050616;28;20494;-60
2022/11/19 02:01:36;;;;;;;17.00;11.60;;;3.80;99.90;;;;;;5057108;28;20472;-59
2022/11/19 02:04:07;;;;;;;16.90;11.27;;;3.70;99.90;;;;;;5056662;28;20497;-60
2022/11/19 02:06:35;;;;;;;15.20;10.00;;;3.70;99.90;;;;;;5048685;28;20456;-60
2022/11/19 02:09:03;;;;;;;30.73;11.63;;;3.70;99.90;;;;;;5038400;28;20480;-59
2022/11/19 02:12:09;;;;;;;16.27;10.70;;;3.60;99.90;;;;;;5037235;28;20513;-59
2022/11/19 02:14:55;;;;;;;15.03;11.27;;;3.60;99.90;;;;;;5022122;28;20464;-57
2022/11/19 02:17:41;;;;;;;16.07;11.30;;;3.60;99.90;;;;;;5047480;28;20462;-59
2022/11/19 02:20:48;;;;;;;17.17;12.07;;;3.50;99.90;;;;;;5055222;28;20436;-58
2022/11/19 02:23:49;;;;;;;18.03;12.10;;;3.60;99.90;;;;;;5054314;28;20470;-60
2022/11/19 02:26:43;;;;;;;17.30;12.37;;;3.60;99.90;;;;;;5057176;28;20752;-59
2022/11/19 02:29:21;;;;;;;16.90;10.93;;;3.50;99.90;;;;;;5009508;28;20515;-58
2022/11/19 02:31:57;;;;;;;18.47;11.80;;;3.50;99.90;;;;;;5036700;28;20462;-60
2022/11/19 02:34:32;;;;;;;19.77;12.60;;;3.50;99.90;;;;;;5036902;28;20455;-60
2022/11/19 02:37:07;;;;;;;19.03;12.17;;;3.50;99.90;;;;;;5034700;28;20766;-60
2022/11/19 02:39:39;;;;;;;19.83;13.50;;;3.40;99.90;;;;;;5036788;28;20561;-60
2022/11/19 02:42:14;;;;;;;17.40;13.07;;;3.30;99.90;;;;;;5038819;28;20429;-60
2022/11/19 02:45:01;;;;;;;19.00;14.90;;;3.30;99.90;;;;;;5057194;28;20496;-58
2022/11/19 02:47:35;;;;;;;19.43;13.37;;;3.30;99.90;;;;;;5060880;28;20478;-58
2022/11/19 02:50:07;;;;;;;20.77;13.63;;;3.20;99.90;;;;;;5041289;28;20563;-59
2022/11/19 02:52:35;;;;;;;19.13;13.77;;;3.20;99.90;;;;;;5040999;28;20781;-60
2022/11/19 02:55:03;;;;;;;18.03;13.80;;;3.20;99.90;;;;;;5040742;28;20486;-59
2022/11/19 02:57:32;;;;;;;24.17;15.53;;;3.20;99.90;;;;;;5040710;28;20813;-59
2022/11/19 03:05:43;;;;;;;21.17;14.50;;;3.20;99.90;;;;;;5060264;28;20446;-60
2022/11/19 03:08:11;;;;;;;23.43;16.70;;;3.10;99.90;;;;;;5060344;28;20428;-60
2022/11/19 03:10:46;;;;;;;22.83;15.70;;;3.10;99.90;;;;;;5041467;28;20866;-58
2022/11/19 03:19:05;;;;;;;21.30;16.83;;;3.10;99.90;;;;;;5039599;28;20442;-61
2022/11/19 03:21:39;;;;;;;25.97;16.53;;;3.10;99.90;;;;;;5040116;28;20553;-59
2022/11/19 03:24:13;;;;;;;24.90;16.67;;;3.10;99.90;;;;;;5039579;28;20501;-60
2022/11/19 03:26:45;;;;;;;23.90;16.63;;;3.00;99.90;;;;;;5047486;28;20443;-59
2022/11/19 03:29:14;;;;;;;21.13;16.17;;;3.00;99.90;;;;;;5040256;28;20777;-59
2022/11/19 03:31:47;;;;;;;23.30;16.43;;;2.90;99.90;;;;;;5040628;28;20460;-60
2022/11/19 03:34:20;;;;;;;24.67;16.03;;;3.00;99.90;;;;;;5039628;28;20536;-59
2022/11/19 03:36:51;;;;;;;27.00;17.23;;;3.00;99.90;;;;;;5039316;28;20767;-60
2022/11/19 03:39:20;;;;;;;22.87;17.20;;;3.00;99.90;;;;;;5039997;28;20469;-60
2022/11/19 03:41:50;;;;;;;25.20;18.13;;;3.00;99.90;;;;;;5039248;28;20550;-61
2022/11/19 03:44:24;;;;;;;26.30;17.93;;;3.00;99.90;;;;;;5039586;28;20947;-59
2022/11/19 03:46:55;;;;;;;25.73;18.90;;;3.00;99.90;;;;;;5039686;28;20524;-57
2022/11/19 03:49:30;;;;;;;21.40;17.30;;;2.90;99.90;;;;;;5040915;28;20429;-59
2022/11/19 03:52:01;;;;;;;27.43;18.53;;;2.90;99.90;;;;;;5039651;28;20484;-58
2022/11/19 03:54:29;;;;;;;28.60;20.03;;;2.80;99.90;;;;;;5039092;28;20460;-58
2022/11/19 03:56:58;;;;;;;25.33;18.37;;;2.70;99.90;;;;;;5038969;28;20467;-59
2022/11/19 03:59:27;;;;;;;26.40;18.00;;;2.70;99.90;;;;;;5058319;28;20508;-58
2022/11/19 04:02:02;;;;;;;29.83;19.30;;;2.80;99.90;;;;;;5057819;28;20490;-59
2022/11/19 04:04:40;;;;;;;27.57;18.43;;;2.70;99.90;;;;;;5059057;28;20951;-59
2022/11/19 04:07:10;;;;;;;30.37;19.30;;;2.80;99.90;;;;;;5059245;28;20869;-60
2022/11/19 04:09:38;;;;;;;22.63;17.53;;;2.80;99.90;;;;;;5041258;28;20495;-59
2022/11/19 04:12:07;;;;;;;27.73;18.83;;;2.80;99.90;;;;;;5039063;28;20551;-60
2022/11/19 04:14:34;;;;;;;25.03;18.77;;;2.80;99.90;;;;;;5039052;28;20463;-60
2022/11/19 04:17:01;;;;;;;25.47;18.33;;;2.80;99.90;;;;;;5039241;28;20557;-57
2022/11/19 04:19:30;;;;;;;27.60;20.70;;;2.80;99.90;;;;;;5051053;28;20444;-58
2022/11/19 04:22:01;;;;;;;28.07;19.43;;;2.80;99.90;;;;;;5056910;28;20866;-56
2022/11/19 04:24:28;;;;;;;25.53;18.83;;;2.90;99.90;;;;;;5058705;28;20530;-58
2022/11/19 04:26:55;;;;;;;29.27;19.30;;;2.90;99.90;;;;;;5058385;28;20434;-58
2022/11/19 04:29:22;;;;;;;26.10;19.40;;;2.80;99.90;;;;;;5050491;28;20912;-59
2022/11/19 04:31:50;;;;;;;22.40;19.13;;;2.80;99.90;;;;;;5054865;28;20489;-60
2022/11/19 04:34:17;;;;;;;24.30;18.60;;;2.70;99.90;;;;;;5056831;28;20866;-59
2022/11/19 04:36:49;;;;;;;26.40;18.57;;;2.80;99.90;;;;;;5058631;28;20929;-58
2022/11/19 04:39:18;;;;;;;23.67;18.00;;;2.80;99.90;;;;;;5058766;28;20441;-56
2022/11/19 04:41:45;;;;;;;25.93;21.13;;;2.80;99.90;;;;;;5045625;28;20576;-58
2022/11/19 04:44:12;;;;;;;23.13;17.47;;;2.80;99.90;;;;;;5039226;28;20461;-59
2022/11/19 04:46:42;;;;;;;22.90;18.17;;;2.80;99.90;;;;;;5038287;28;20467;-57
2022/11/19 04:49:09;;;;;;;22.97;18.20;;;2.80;99.90;;;;;;5038598;28;20485;-57
2022/11/19 04:51:38;;;;;;;24.87;18.77;;;2.80;99.90;;;;;;5045019;28;20443;-58
2022/11/19 04:54:07;;;;;;;25.10;19.60;;;2.80;99.90;;;;;;5058085;28;20565;-59
2022/11/19 04:56:34;;;;;;;23.63;18.03;;;2.80;99.90;;;;;;5055818;28;20462;-60
2022/11/19 04:59:02;;;;;;;23.70;18.10;;;2.80;99.90;;;;;;5058404;28;20437;-58
2022/11/19 05:01:29;;;;;;;22.43;18.10;;;2.80;99.90;;;;;;5056451;28;20463;-57
2022/11/19 05:03:56;;;;;;;22.93;18.70;;;2.80;99.90;;;;;;5051307;28;20909;-59
2022/11/19 05:06:26;;;;;;;22.90;17.87;;;2.80;99.90;;;;;;5038015;28;20463;-60
2022/11/19 05:08:58;;;;;;;21.77;17.60;;;2.80;99.90;;;;;;5037304;28;20459;-57
2022/11/19 05:11:27;;;;;;;24.13;19.67;;;2.80;99.90;;;;;;5038010;28;20468;-59
2022/11/19 05:13:54;;;;;;;22.87;18.23;;;2.80;99.90;;;;;;5054190;28;20466;-59
2022/11/19 05:16:24;;;;;;;21.27;17.13;;;2.80;99.90;;;;;;5037891;28;20936;-59
2022/11/19 05:18:53;;;;;;;25.63;19.37;;;2.80;99.90;;;;;;5037857;28;20467;-58
2022/11/19 05:21:20;;;;;;;23.10;17.77;;;2.90;99.90;;;;;;5038182;28;20565;-59
2022/11/19 05:23:47;;;;;;;27.73;19.13;;;2.80;99.90;;;;;;5050744;28;20913;-62
2022/11/19 05:26:14;;;;;;;24.50;18.43;;;2.80;99.90;;;;;;5057666;28;20486;-61
2022/11/19 05:28:43;;;;;;;23.50;18.30;;;2.90;99.90;;;;;;5038786;28;20554;-61
2022/11/19 05:31:13;;;;;;;26.30;20.40;;;2.90;99.90;;;;;;5037911;28;20530;-61
2022/11/19 05:33:41;;;;;;;23.70;17.90;;;2.90;99.90;;;;;;5044599;28;20757;-61
2022/11/19 05:36:09;;;;;;;27.23;19.80;;;3.00;99.90;;;;;;5056984;28;20459;-62
2022/11/19 05:38:37;;;;;;;25.70;18.70;;;3.00;99.90;;;;;;5056917;28;20560;-62
2022/11/19 05:41:10;;;;;;;27.10;20.30;;;3.00;99.90;;;;;;5057627;28;20804;-62
2022/11/19 05:43:37;;;;;;;28.60;20.17;;;3.00;99.90;;;;;;5051674;28;20478;-62
2022/11/19 05:46:06;;;;;;;24.83;19.47;;;3.00;99.90;;;;;;5037351;28;20472;-62
2022/11/19 05:48:33;;;;;;;25.20;19.80;;;3.00;99.90;;;;;;5037493;28;20773;-62
2022/11/19 05:51:00;;;;;;;34.47;20.43;;;3.00;99.90;;;;;;5037124;28;20883;-62
2022/11/19 05:53:30;;;;;;;26.07;19.73;;;3.00;99.90;;;;;;5036926;28;20443;-62
2022/11/19 05:55:57;;;;;;;27.97;20.93;;;3.00;99.90;;;;;;5036951;28;20455;-62
2022/11/19 05:58:30;;;;;;;28.37;20.83;;;3.00;99.90;;;;;;5040835;28;20813;-62
2022/11/19 06:00:59;;;;;;;26.10;20.57;;;3.00;99.90;;;;;;5057193;28;20459;-62
2022/11/19 06:03:28;;;;;;;33.60;24.10;;;2.90;99.90;;;;;;5057193;28;20621;-62
2022/11/19 06:05:55;;;;;;;29.77;21.90;;;2.80;99.90;;;;;;5039803;28;20498;-62
2022/11/19 06:08:22;;;;;;;30.80;24.10;;;2.90;99.90;;;;;;5053421;28;20903;-62
2022/11/19 06:10:49;;;;;;;31.27;22.97;;;2.90;99.90;;;;;;5055841;28;20466;-62
2022/11/19 06:13:17;;;;;;;30.87;22.50;;;2.90;99.90;;;;;;5057135;28;20474;-62
2022/11/19 06:15:44;;;;;;;30.20;21.83;;;2.80;99.90;;;;;;5056822;28;20458;-61
2022/11/19 06:18:11;;;;;;;31.70;22.83;;;2.80;99.90;;;;;;5045351;28;20463;-62
2022/11/19 06:20:42;;;;;;;28.90;22.63;;;2.80;99.90;;;;;;5041277;28;20485;-62
2022/11/19 06:23:10;;;;;;;29.73;21.30;;;2.80;99.90;;;;;;5042008;28;20473;-62
2022/11/19 06:25:37;;;;;;;30.47;22.43;;;2.80;99.90;;;;;;5041093;28;20497;-62
2022/11/19 06:28:04;;;;;;;28.13;21.70;;;2.80;99.90;;;;;;5045370;28;20441;-62
2022/11/19 06:30:32;;;;;;;52.57;37.47;;;2.70;99.90;;;;;;5058880;28;20437;-62
2022/11/19 06:32:59;;;;;;;33.20;24.53;;;2.70;99.90;;;;;;5060778;28;20529;-62
2022/11/19 06:35:26;;;;;;;28.67;22.13;;;2.70;99.90;;;;;;5061162;28;20436;-61
2022/11/19 06:37:58;;;;;;;30.27;22.20;;;2.70;99.90;;;;;;5060610;28;20469;-61
2022/11/19 06:40:26;;;;;;;29.90;22.77;;;2.70;99.90;;;;;;5058621;28;20437;-62
2022/11/19 06:42:53;;;;;;;33.07;24.20;;;2.60;99.90;;;;;;5040683;28;20442;-61
2022/11/19 06:45:20;;;;;;;32.80;23.77;;;2.60;99.90;;;;;;5041682;28;20475;-61
2022/11/19 06:47:48;;;;;;;30.43;23.83;;;2.60;99.90;;;;;;5040315;28;20463;-62
2022/11/19 06:50:16;;;;;;;28.87;21.60;;;2.50;99.90;;;;;;5040823;28;20438;-61
2022/11/19 06:52:44;;;;;;;30.17;22.93;;;2.50;99.90;;;;;;5056543;28;20815;-61
2022/11/19 06:55:13;;;;;;;31.50;21.90;;;2.50;99.90;;;;;;5060502;28;20454;-61
2022/11/19 06:57:43;;;;;;;36.23;24.70;;;2.50;99.90;;;;;;5058224;28;20463;-61
2022/11/19 07:00:14;;;;;;;30.43;23.20;;;2.40;99.90;;;;;;5040021;28;20444;-61
2022/11/19 07:02:41;;;;;;;29.50;22.60;;;2.40;99.90;;;;;;5040263;28;20487;-61
2022/11/19 07:05:10;;;;;;;32.30;23.63;;;2.30;99.90;;;;;;5040397;28;20498;-61
2022/11/19 07:07:39;;;;;;;31.63;23.97;;;2.30;99.90;;;;;;5040546;28;20470;-61
2022/11/19 07:10:07;;;;;;;30.30;23.07;;;2.30;99.90;;;;;;5040339;28;20466;-61
2022/11/19 07:12:36;;;;;;;28.77;23.17;;;2.30;99.90;;;;;;5040221;28;20441;-61
2022/11/19 07:15:04;;;;;;;34.77;24.70;;;2.30;99.90;;;;;;5039858;28;20506;-61
2022/11/19 07:17:32;;;;;;;30.80;24.20;;;2.30;99.90;;;;;;5040502;28;20445;-61
2022/11/19 07:19:59;;;;;;;31.53;24.27;;;2.30;99.90;;;;;;5039730;28;20448;-61
2022/11/19 07:22:29;;;;;;;31.03;24.57;;;2.30;99.90;;;;;;5040011;28;20897;-61
2022/11/19 07:24:57;;;;;;;35.67;24.13;;;2.30;99.90;;;;;;5040120;28;20494;-61
2022/11/19 07:27:24;;;;;;;33.73;25.40;;;2.20;99.90;;;;;;5040123;28;20888;-61
2022/11/19 07:29:52;;;;;;;31.67;23.00;;;2.20;99.90;;;;;;5053685;28;20428;-61
2022/11/19 07:32:20;;;;;;;30.60;23.07;;;2.10;99.90;;;;;;5060083;28;20433;-61
2022/11/19 07:34:47;;;;;;;29.60;23.80;;;2.10;99.90;;;;;;5059682;28;20473;-61
2022/11/19 07:37:14;;;;;;;34.40;25.60;;;2.20;99.90;;;;;;5060079;28;20536;-61
2022/11/19 07:39:41;;;;;;;32.53;24.00;;;2.20;99.90;;;;;;5059495;28;20544;-61
2022/11/19 07:44:55;;;;;;;29.33;21.87;;;2.20;99.90;;;;;;5059228;28;20437;-61
2022/11/19 07:47:25;;;;;;;31.57;22.50;;;2.20;99.90;;;;;;5059822;28;20466;-61
2022/11/19 07:49:53;;;;;;;31.60;23.20;;;2.30;99.90;;;;;;5051203;28;20482;-61
2022/11/19 07:52:20;;;;;;;29.67;21.77;;;2.40;99.90;;;;;;5038736;28;20448;-61
2022/11/19 07:54:47;;;;;;;28.90;21.87;;;2.40;99.90;;;;;;5039581;28;20902;-61
2022/11/19 07:57:14;;;;;;;28.10;20.73;;;2.40;99.90;;;;;;5039181;28;20795;-61
2022/11/19 07:59:42;;;;;;;31.00;23.27;;;2.50;99.90;;;;;;5039095;28;20455;-61
2022/11/19 08:02:14;;;;;;;27.27;21.27;;;2.50;99.90;;;;;;5070405;28;20903;-61
2022/11/19 08:04:41;;;;;;;28.10;20.60;;;2.50;99.90;;;;;;5079139;28;20844;-61
2022/11/19 08:07:08;;;;;;;27.80;20.70;;;2.50;99.90;;;;;;5078795;28;20483;-61
2022/11/19 08:09:36;;;;;;;29.60;20.60;;;2.50;99.90;;;;;;5076827;28;20519;-61
2022/11/19 08:12:03;;;;;;;26.97;20.03;;;2.50;99.90;;;;;;5077926;28;20468;-60
2022/11/19 08:14:32;;;;;;;26.93;20.80;;;2.50;99.90;;;;;;5074479;28;20464;-61
2022/11/19 08:19:46;;;;;;;28.17;20.90;;;2.50;99.90;;;;;;5058456;28;20437;-60
2022/11/19 08:22:15;;;;;;;27.83;20.57;;;2.50;99.90;;;;;;5058907;28;20505;-61
2022/11/19 08:24:42;;;;;;;29.47;20.77;;;2.50;99.90;;;;;;5058698;28;20481;-61
2022/11/19 08:27:09;;;;;;;24.77;19.77;;;2.50;99.90;;;;;;5058705;28;20912;-62
2022/11/19 08:29:39;;;;;;;26.73;19.87;;;2.40;99.90;;;;;;5058988;28;20465;-61
2022/11/19 08:32:07;;;;;;;23.80;18.60;;;2.30;99.90;;;;;;5075102;28;20520;-61
2022/11/19 08:34:34;;;;;;;27.03;19.80;;;2.40;99.90;;;;;;5078525;28;20871;-61
2022/11/19 08:37:06;;;;;;;25.73;19.17;;;2.40;99.90;;;;;;5078594;28;20957;-61
2022/11/19 08:39:33;;;;;;;26.60;19.93;;;2.30;99.90;;;;;;5078233;28;20772;-61
2022/11/19 08:44:45;;;;;;;30.53;20.43;;;2.40;99.90;;;;;;5078222;28;20754;-61
2022/11/19 08:47:13;;;;;;;28.30;20.83;;;2.50;99.90;;;;;;5077880;28;20607;-61
2022/11/19 08:49:40;;;;;;;26.30;20.20;;;2.50;99.90;;;;;;5078579;28;20462;-61
2022/11/19 08:52:11;;;;;;;30.67;19.73;;;2.50;99.90;;;;;;5078262;28;20461;-61
2022/11/19 08:54:39;;;;;;;26.90;20.30;;;2.50;99.90;;;;;;5078379;28;20457;-60
2022/11/19 08:57:06;;;;;;;28.40;21.67;;;2.50;99.90;;;;;;5076933;28;20490;-61
2022/11/19 08:59:35;;;;;;;25.57;19.40;;;2.40;99.90;;;;;;5078333;28;20872;-61
2022/11/19 09:02:03;;;;;;;26.90;21.30;;;2.60;99.90;;;;;;5077529;28;20495;-61
2022/11/19 09:04:30;;;;;;;30.20;21.37;;;2.60;99.90;;;;;;5077825;28;20439;-61
2022/11/19 09:07:01;;;;;;;26.63;19.60;;;2.50;99.90;;;;;;5077752;28;20468;-61
2022/11/19 09:09:32;;;;;;;40.83;28.30;;;2.40;99.90;;;;;;5077098;28;20466;-61
2022/11/19 09:11:59;;;;;;;33.17;23.70;;;2.40;99.90;;;;;;5077593;28;20563;-61
2022/11/19 09:14:29;;;;;;;27.10;19.67;;;2.40;99.90;;;;;;5077792;28;20872;-61
2022/11/19 09:17:00;;;;;;;33.80;22.03;;;2.40;99.90;;;;;;5077925;28;20464;-61
2022/11/19 09:19:30;;;;;;;27.70;20.93;;;2.50;99.90;;;;;;5077966;28;20774;-61
2022/11/19 09:22:00;;;;;;;31.63;21.80;;;2.50;99.90;;;;;;5071465;28;20894;-63
2022/11/19 09:24:32;;;;;;;29.80;21.70;;;2.60;99.90;;;;;;5064393;28;20451;-61
2022/11/19 09:26:59;;;;;;;28.63;19.70;;;2.50;99.90;;;;;;5063248;28;20975;-61
2022/11/19 09:29:26;;;;;;;27.83;19.97;;;2.50;99.90;;;;;;5065719;28;20464;-61
2022/11/19 09:31:55;;;;;;;29.03;22.33;;;2.40;99.90;;;;;;5076711;28;20468;-61
2022/11/19 09:34:22;;;;;;;32.13;22.27;;;2.50;99.90;;;;;;5076204;28;20465;-61
2022/11/19 09:37:00;;;;;;;34.80;23.90;;;2.40;99.90;;;;;;5076132;28;20497;-61
2022/11/19 09:39:27;;;;;;;30.73;22.90;;;2.40;99.90;;;;;;5076953;28;20526;-62
2022/11/19 09:42:17;;;;;;;31.20;21.60;;;2.50;99.90;;;;;;5076574;28;20457;-62
2022/11/19 09:45:07;;;;;;;26.30;19.17;;;2.30;99.90;;;;;;5076824;28;20815;-62
2022/11/19 09:48:10;;;;;;;29.00;20.93;;;2.40;99.90;;;;;;5076133;28;20490;-63
2022/11/19 09:50:49;;;;;;;29.67;20.87;;;2.40;99.90;;;;;;4973712;28;20463;-62
2022/11/19 09:53:19;;;;;;;24.13;19.00;;;2.40;99.90;;;;;;5056344;28;20861;-62
2022/11/19 09:55:53;;;;;;;29.53;20.37;;;2.30;99.90;;;;;;5065429;28;20454;-62
2022/11/19 09:58:26;;;;;;;26.43;20.20;;;2.30;99.90;;;;;;5063425;28;20905;-63
2022/11/19 10:00:58;;;;;;;25.70;19.93;;;2.20;99.90;;;;;;5064759;28;20457;-64
2022/11/19 10:03:26;;;;;;;25.93;19.63;;;2.30;99.90;;;;;;5065794;28;20480;-64
2022/11/19 10:06:06;;;;;;;28.73;21.90;;;2.20;99.90;;;;;;5066128;28;20486;-63
2022/11/19 10:08:55;;;;;;;25.80;19.70;;;2.30;99.90;;;;;;5065948;28;20541;-63
2022/11/19 10:11:39;;;;;;;26.50;19.37;;;2.20;99.90;;;;;;5076377;28;20461;-62
2022/11/19 10:14:20;;;;;;;32.23;20.83;;;2.40;99.90;;;;;;5075890;28;20563;-61
2022/11/19 10:16:57;;;;;;;26.70;19.20;;;2.50;99.90;;;;;;5076841;28;20457;-61
2022/11/19 10:19:41;;;;;;;28.07;21.47;;;2.40;99.90;;;;;;5076408;28;20439;-62
2022/11/19 10:22:15;;;;;;;25.67;20.27;;;2.50;99.90;;;;;;5074196;28;20460;-61
2022/11/19 10:24:45;;;;;;;27.13;19.97;;;2.50;99.90;;;;;;5076305;28;20754;-62
2022/11/19 10:27:23;;;;;;;27.40;19.47;;;2.60;99.90;;;;;;5076448;28;20497;-63
2022/11/19 10:29:56;;;;;;;24.93;18.63;;;2.60;99.90;;;;;;5076268;28;20760;-63
2022/11/19 10:32:31;;;;;;;29.40;19.60;;;2.40;99.90;;;;;;5075456;28;20462;-62
2022/11/19 10:35:03;;;;;;;24.77;18.20;;;2.50;99.90;;;;;;5067677;28;20461;-63
2022/11/19 10:37:35;;;;;;;23.00;17.80;;;2.60;99.90;;;;;;5057280;28;20458;-63
2022/11/19 10:40:09;;;;;;;25.93;18.07;;;2.50;99.90;;;;;;5056570;28;20769;-62
2022/11/19 10:42:39;;;;;;;27.40;18.63;;;2.50;99.90;;;;;;5054716;28;20727;-63
2022/11/19 10:45:15;;;;;;;23.80;18.27;;;2.60;99.90;;;;;;5055824;28;20440;-62
2022/11/19 10:47:51;;;;;;;23.90;18.27;;;2.60;99.90;;;;;;5055772;28;20489;-62
2022/11/19 10:50:20;;;;;;;22.80;17.43;;;2.60;99.90;;;;;;5054880;28;20469;-63
2022/11/19 10:52:52;;;;;;;22.90;17.20;;;2.50;99.90;;;;;;5054817;28;20795;-62
2022/11/19 10:55:24;;;;;;;22.67;18.73;;;2.40;99.90;;;;;;5054700;28;20468;-62
2022/11/19 10:58:04;;;;;;;25.07;18.37;;;2.60;99.90;;;;;;5037942;28;20476;-63
2022/11/19 11:00:34;;;;;;;21.70;16.97;;;2.60;99.90;;;;;;5035768;28;20459;-63
2022/11/19 11:03:05;;;;;;;23.30;17.23;;;2.60;99.90;;;;;;5047483;28;20473;-62
2022/11/19 11:05:55;;;;;;;25.07;19.07;;;2.50;99.90;;;;;;5060961;28;20466;-62
2022/11/19 11:08:23;;;;;;;20.77;16.70;;;2.50;99.90;;;;;;5061363;28;20454;-63
2022/11/19 11:10:52;;;;;;;22.80;17.63;;;2.50;99.90;;;;;;5061320;28;20880;-63
2022/11/19 11:16:19;;;;;;;21.80;17.03;;;2.30;99.90;;;;;;5057791;28;20408;-63
2022/11/19 11:18:51;;;;;;;25.20;19.30;;;2.40;99.90;;;;;;5058646;28;20460;-63
2022/11/19 11:21:30;;;;;;;22.40;17.27;;;2.40;99.90;;;;;;5059199;28;20454;-64
2022/11/19 11:23:57;;;;;;;23.73;18.53;;;2.30;99.90;;;;;;5058489;28;20493;-63
2022/11/19 11:26:27;;;;;;;23.53;18.07;;;2.50;99.90;;;;;;5058256;28;20485;-63
2022/11/19 11:28:56;;;;;;;23.33;17.83;;;2.50;99.90;;;;;;5058724;28;20439;-63
2022/11/19 11:31:34;;;;;;;22.83;17.50;;;2.70;99.90;;;;;;5060126;28;20814;-63
2022/11/19 11:34:03;;;;;;;21.63;16.20;;;2.70;99.90;;;;;;5058853;28;20461;-63
2022/11/19 11:36:33;;;;;;;20.97;16.00;;;2.70;99.90;;;;;;5058290;28;20455;-63
2022/11/19 11:39:02;;;;;;;23.40;17.40;;;2.80;99.90;;;;;;5058817;28;20527;-63
2022/11/19 11:41:38;;;;;;;21.33;17.03;;;2.80;99.90;;;;;;5058600;28;20812;-63
2022/11/19 11:44:07;;;;;;;24.30;17.30;;;2.90;99.90;;;;;;5059334;28;20436;-63
2022/11/19 11:46:46;;;;;;;21.53;16.60;;;2.90;99.90;;;;;;5059085;28;20526;-63
2022/11/19 11:49:33;;;;;;;19.87;16.50;;;3.00;99.90;;;;;;5056074;28;20528;-62
2022/11/19 11:52:18;;;;;;;21.03;16.50;;;2.90;99.90;;;;;;5039372;28;20455;-62
2022/11/19 11:54:57;;;;;;;20.03;15.40;;;2.80;99.90;;;;;;5036277;28;20503;-62
2022/11/19 11:57:26;;;;;;;21.93;17.00;;;2.90;99.90;;;;;;5038310;28;20497;-62
2022/11/19 11:59:57;;;;;;;19.33;15.17;;;2.90;99.90;;;;;;5038550;28;20459;-63
2022/11/19 12:02:29;;;;;;;21.30;16.03;;;3.00;99.90;;;;;;5057001;28;20531;-63
2022/11/19 12:05:01;;;;;;;21.30;16.00;;;3.10;99.90;;;;;;5079206;28;20560;-63
2022/11/19 12:07:55;;;;;;;20.50;16.13;;;3.00;99.90;;;;;;5079341;28;20576;-63
2022/11/19 12:10:34;;;;;;;23.33;17.40;;;3.10;99.90;;;;;;5067774;28;20541;-63
2022/11/19 12:13:35;;;;;;;19.80;15.67;;;3.20;99.90;;;;;;5065042;28;20464;-63
2022/11/19 12:16:11;;;;;;;20.30;15.67;;;3.20;99.90;;;;;;5058064;28;20473;-63
2022/11/19 12:18:47;;;;;;;19.83;16.43;;;3.30;99.90;;;;;;5058318;28;20841;-62
2022/11/19 12:21:28;;;;;;;19.80;15.57;;;3.50;99.90;;;;;;5058688;28;20464;-62
2022/11/19 12:24:23;;;;;;;22.10;15.53;;;3.50;99.90;;;;;;5058460;28;20472;-63
2022/11/19 12:27:01;;;;;;;21.07;15.60;;;3.50;99.90;;;;;;5057895;28;20490;-63
2022/11/19 12:29:38;;;;;;;20.27;15.70;;;3.50;99.90;;;;;;5057736;28;20469;-62
2022/11/19 12:32:32;;;;;;;19.33;16.23;;;3.60;99.90;;;;;;5057527;28;20472;-62
2022/11/19 12:35:18;;;;;;;19.30;15.90;;;3.80;99.90;;;;;;5057310;28;20450;-63
2022/11/19 12:38:03;;;;;;;16.27;13.97;;;3.90;99.90;;;;;;5056931;28;20458;-62
2022/11/19 12:40:39;;;;;;;17.20;13.90;;;4.10;99.90;;;;;;5056975;28;20497;-62
2022/11/19 12:43:17;;;;;;;17.90;13.43;;;4.20;99.90;;;;;;5058251;28;20910;-62
2022/11/19 12:45:57;;;;;;;19.33;14.23;;;4.20;99.90;;;;;;5057723;28;20514;-62
2022/11/19 12:48:43;;;;;;;18.43;14.47;;;4.30;99.90;;;;;;5057762;28;20960;-62
2022/11/19 12:51:19;;;;;;;16.17;13.13;;;4.20;99.90;;;;;;5058353;28;20462;-62
2022/11/19 12:54:03;;;;;;;18.10;12.90;;;3.90;99.90;;;;;;5058104;28;20466;-61
2022/11/19 12:56:42;;;;;;;16.17;12.80;;;3.90;1.00;;;;;;5057318;28;20459;-61
2022/11/19 12:59:39;;;;;;;14.43;12.03;;;4.00;1.00;;;;;;5068178;28;20432;-62
2022/11/19 13:02:18;;;;;;;15.10;12.50;;;4.00;1.00;;;;;;5067176;28;20881;-62
2022/11/19 13:04:52;;;;;;;17.07;13.50;;;4.00;1.00;;;;;;5067033;28;20563;-61
2022/11/19 13:07:29;;;;;;;16.60;13.53;;;4.20;1.00;;;;;;5065425;28;20460;-62
2022/11/19 13:10:01;;;;;;;16.07;12.80;;;4.10;1.00;;;;;;5065395;28;20458;-62
2022/11/19 13:12:39;;;;;;;16.93;13.43;;;4.00;1.00;;;;;;5065360;28;20424;-61
2022/11/19 13:15:21;;;;;;;18.90;13.30;;;4.00;1.00;;;;;;5063842;28;20450;-61
2022/11/19 13:17:53;;;;;;;16.77;13.33;;;4.10;1.00;;;;;;5060641;28;20770;-61
2022/11/19 13:20:25;;;;;;;18.20;15.17;;;4.10;1.00;;;;;;5057769;28;20459;-61
2022/11/19 13:22:58;;;;;;;27.47;23.40;;;4.00;1.00;;;;;;5061778;28;20464;-61
2022/11/19 13:25:28;;;;;;;27.30;21.60;;;3.90;1.00;;;;;;5056472;28;20437;-61
2022/11/19 13:28:02;;;;;;;22.57;18.10;;;3.70;1.00;;;;;;5056608;28;20494;-62